Taylors Falls, MN (55084)

7:31 PM CST on December 25, 2014 (GMT -0600)
Hilltop Acres | Change Station
CLOSE
Current Station
Personal Weather Station
Location: Osceola, WI
Elevation: 900 ft
Nearby Weather Stations

Elev 900 ft 45.34 °N, 92.67 °W | Updated 12 minutes ago

Snow
Snow
32.4 °F
Feels Like 32 °F
N
1.0
Wind Variable Wind from NE
Gusts 2.0 mph

Today
High -- | Low -- °F
--% Chance of Precip.
Yesterday
High -- | Low -- °F
Precip. -- in
7:49 AM 4:32 PM
Waxing Crescent, 21% visible
Pressure 29.87 in
Visibility 3.0 miles
Clouds Scattered Clouds 1600 ft
Scattered Clouds 2300 ft
Overcast 3100 ft
Windchill 32 °F
Dew Point 32 °F
Humidity 98%
Rainfall 0.02 in
Snow Depth Not available.
UV 0 out of 12
Pollen .10 out of 12
Air Quality Not available.
Flu Activity Not available.
METAR KOEO 260115Z AUTO 00000KT 3SM -SN SCT016 SCT023 OVC031 00/00 A2987 RMK AO2 T00000000

More Conditions Fewer Conditions

Pressure 29.87 in
Visibility 3.0 miles
Clouds Scattered Clouds 1600 ft
Scattered Clouds 2300 ft
Overcast 3100 ft
Windchill 32 °F
Dew Point 32 °F
Humidity 98%
Rainfall 0.02 in
Snow Depth Not available.
UV 0 out of 12
Pollen .10 out of 12
Air Quality Not available.
Flu Activity Not available.
METAR KOEO 260115Z AUTO 00000KT 3SM -SN SCT016 SCT023 OVC031 00/00 A2987 RMK AO2 T00000000

More Conditions Fewer Conditions

10-Day Weather Forecast

Almanac

Astronomy

Dec. 25, 2014 Rise Set
Actual Time
Civil Twilight
Nautical Twilight
Astronomical Twilight
Moon
Length of Visible Light
Length of Day
Tomorrow will be .
, % of the Moon is Illuminated

Today's Extremes

State Highs State Lows

Community

WunderPhotos

Upload Photos

1,780,495 photos uploaded!

WunderBlogs® & News

Nearby

Air Quality

  Air Quality AQ Index Pollutant
Not available.

Snow Depth

Station Depth Elevation

Earthquake Activity

City Distance Mag. Time & Date
Minimum magnitude displayed is 2.5.

Coastal Water Temperatures

Place Temperature

Nearby Weather Stations